sensor_id;sensor_type;location;lat;lon;timestamp;temperature;humidity
6118;DHT22;3089;48.202;11.510;2023-12-20T00:01:25;4.60;99.90
6118;DHT22;3089;48.202;11.510;2023-12-20T00:03:54;4.60;99.90
6118;DHT22;3089;48.202;11.510;2023-12-20T00:06:22;4.60;99.90
6118;DHT22;3089;48.202;11.510;2023-12-20T00:08:50;4.60;99.90
6118;DHT22;3089;48.202;11.510;2023-12-20T00:11:18;4.70;99.90
6118;DHT22;3089;48.202;11.510;2023-12-20T00:13:46;4.60;99.90
6118;DHT22;3089;48.202;11.510;2023-12-20T00:16:19;4.60;99.90
6118;DHT22;3089;48.202;11.510;2023-12-20T00:18:47;4.60;99.90
6118;DHT22;3089;48.202;11.510;2023-12-20T00:21:17;4.60;99.90
6118;DHT22;3089;48.202;11.510;2023-12-20T00:23:45;4.60;99.90
6118;DHT22;3089;48.202;11.510;2023-12-20T00:26:13;4.60;99.90
6118;DHT22;3089;48.202;11.510;2023-12-20T00:28:41;4.60;99.90
6118;DHT22;3089;48.202;11.510;2023-12-20T00:31:09;4.60;99.90
6118;DHT22;3089;48.202;11.510;2023-12-20T00:33:39;4.60;99.90
6118;DHT22;3089;48.202;11.510;2023-12-20T00:36:10;4.60;99.90
6118;DHT22;3089;48.202;11.510;2023-12-20T00:38:38;4.60;99.90
6118;DHT22;3089;48.202;11.510;2023-12-20T00:41:06;4.60;99.90
6118;DHT22;3089;48.202;11.510;2023-12-20T00:43:34;4.70;99.90
6118;DHT22;3089;48.202;11.510;2023-12-20T00:46:02;4.70;99.90
6118;DHT22;3089;48.202;11.510;2023-12-20T00:48:30;4.70;99.90
6118;DHT22;3089;48.202;11.510;2023-12-20T00:51:00;4.70;99.90
6118;DHT22;3089;48.202;11.510;2023-12-20T00:53:27;4.70;99.90
6118;DHT22;3089;48.202;11.510;2023-12-20T00:55:55;4.70;99.90
6118;DHT22;3089;48.202;11.510;2023-12-20T00:58:25;4.70;99.90
6118;DHT22;3089;48.202;11.510;2023-12-20T01:00:54;4.70;99.90
6118;DHT22;3089;48.202;11.510;2023-12-20T01:03:22;4.70;99.90
6118;DHT22;3089;48.202;11.510;2023-12-20T01:05:50;4.70;99.90
6118;DHT22;3089;48.202;11.510;2023-12-20T01:08:20;4.70;99.90
6118;DHT22;3089;48.202;11.510;2023-12-20T01:10:48;4.70;99.90
6118;DHT22;3089;48.202;11.510;2023-12-20T01:13:16;4.70;99.90
6118;DHT22;3089;48.202;11.510;2023-12-20T01:15:44;4.70;99.90
6118;DHT22;3089;48.202;11.510;2023-12-20T01:18:12;4.70;99.90
6118;DHT22;3089;48.202;11.510;2023-12-20T01:20:40;4.70;99.90
6118;DHT22;3089;48.202;11.510;2023-12-20T01:23:09;4.70;99.90
6118;DHT22;3089;48.202;11.510;2023-12-20T01:25:39;4.70;99.90
6118;DHT22;3089;48.202;11.510;2023-12-20T01:28:07;4.70;99.90
6118;DHT22;3089;48.202;11.510;2023-12-20T01:30:35;4.70;99.90
6118;DHT22;3089;48.202;11.510;2023-12-20T01:33:03;4.70;99.90
6118;DHT22;3089;48.202;11.510;2023-12-20T01:35:31;4.60;99.90
6118;DHT22;3089;48.202;11.510;2023-12-20T01:37:59;4.70;99.90
6118;DHT22;3089;48.202;11.510;2023-12-20T01:40:27;4.60;99.90
6118;DHT22;3089;48.202;11.510;2023-12-20T01:43:00;4.60;99.90
6118;DHT22;3089;48.202;11.510;2023-12-20T01:45:28;4.60;99.90
6118;DHT22;3089;48.202;11.510;2023-12-20T01:47:57;4.60;99.90
6118;DHT22;3089;48.202;11.510;2023-12-20T01:50:27;4.60;99.90
6118;DHT22;3089;48.202;11.510;2023-12-20T01:52:56;4.60;99.90
6118;DHT22;3089;48.202;11.510;2023-12-20T01:55:25;4.60;99.90
6118;DHT22;3089;48.202;11.510;2023-12-20T01:57:55;4.60;99.90
6118;DHT22;3089;48.202;11.510;2023-12-20T02:00:26;4.60;99.90
6118;DHT22;3089;48.202;11.510;2023-12-20T02:02:55;4.60;99.90
6118;DHT22;3089;48.202;11.510;2023-12-20T02:05:25;4.60;99.90
6118;DHT22;3089;48.202;11.510;2023-12-20T02:07:54;4.70;99.90
6118;DHT22;3089;48.202;11.510;2023-12-20T02:10:23;4.70;99.90
6118;DHT22;3089;48.202;11.510;2023-12-20T02:12:51;4.60;99.90
6118;DHT22;3089;48.202;11.510;2023-12-20T02:15:19;4.60;99.90
6118;DHT22;3089;48.202;11.510;2023-12-20T02:17:49;4.60;99.90
6118;DHT22;3089;48.202;11.510;2023-12-20T02:20:17;4.60;99.90
6118;DHT22;3089;48.202;11.510;2023-12-20T02:22:47;4.60;99.90
6118;DHT22;3089;48.202;11.510;2023-12-20T02:25:15;4.70;99.90
6118;DHT22;3089;48.202;11.510;2023-12-20T02:27:43;4.70;99.90
6118;DHT22;3089;48.202;11.510;2023-12-20T02:30:11;4.60;99.90
6118;DHT22;3089;48.202;11.510;2023-12-20T02:32:39;4.60;99.90
6118;DHT22;3089;48.202;11.510;2023-12-20T02:35:07;4.70;99.90
6118;DHT22;3089;48.202;11.510;2023-12-20T02:37:36;4.70;99.90
6118;DHT22;3089;48.202;11.510;2023-12-20T02:40:06;4.70;99.90
6118;DHT22;3089;48.202;11.510;2023-12-20T02:42:35;4.70;99.90
6118;DHT22;3089;48.202;11.510;2023-12-20T02:45:03;4.70;99.90
6118;DHT22;3089;48.202;11.510;2023-12-20T02:47:32;4.70;99.90
6118;DHT22;3089;48.202;11.510;2023-12-20T02:50:00;4.60;99.90
6118;DHT22;3089;48.202;11.510;2023-12-20T02:52:29;4.60;99.90
6118;DHT22;3089;48.202;11.510;2023-12-20T02:54:57;4.60;99.90
6118;DHT22;3089;48.202;11.510;2023-12-20T02:57:26;4.70;99.90
6118;DHT22;3089;48.202;11.510;2023-12-20T02:59:54;4.70;99.90
6118;DHT22;3089;48.202;11.510;2023-12-20T03:02:21;4.70;99.90
6118;DHT22;3089;48.202;11.510;2023-12-20T03:04:49;4.70;99.90
6118;DHT22;3089;48.202;11.510;2023-12-20T03:07:17;4.70;99.90
6118;DHT22;3089;48.202;11.510;2023-12-20T03:09:45;4.70;99.90
6118;DHT22;3089;48.202;11.510;2023-12-20T03:12:34;4.70;99.90
6118;DHT22;3089;48.202;11.510;2023-12-20T03:15:02;4.80;99.90
6118;DHT22;3089;48.202;11.510;2023-12-20T03:17:30;4.80;99.90
6118;DHT22;3089;48.202;11.510;2023-12-20T03:19:58;4.80;99.90
6118;DHT22;3089;48.202;11.510;2023-12-20T03:22:26;4.80;99.90
6118;DHT22;3089;48.202;11.510;2023-12-20T03:24:54;4.80;99.90
6118;DHT22;3089;48.202;11.510;2023-12-20T03:27:22;4.80;99.90
6118;DHT22;3089;48.202;11.510;2023-12-20T03:29:52;4.80;99.90
6118;DHT22;3089;48.202;11.510;2023-12-20T03:32:20;4.80;99.90
6118;DHT22;3089;48.202;11.510;2023-12-20T03:34:47;4.80;99.90
6118;DHT22;3089;48.202;11.510;2023-12-20T03:37:16;4.80;99.90
6118;DHT22;3089;48.202;11.510;2023-12-20T03:39:44;4.80;99.90
6118;DHT22;3089;48.202;11.510;2023-12-20T03:42:12;4.90;99.90
6118;DHT22;3089;48.202;11.510;2023-12-20T03:44:40;4.90;99.90
6118;DHT22;3089;48.202;11.510;2023-12-20T03:47:09;4.90;99.90
6118;DHT22;3089;48.202;11.510;2023-12-20T03:49:38;4.90;99.90
6118;DHT22;3089;48.202;11.510;2023-12-20T03:52:06;4.90;99.90
6118;DHT22;3089;48.202;11.510;2023-12-20T03:54:35;4.90;99.90
6118;DHT22;3089;48.202;11.510;2023-12-20T03:57:04;4.90;99.90
6118;DHT22;3089;48.202;11.510;2023-12-20T03:59:35;4.90;99.90
6118;DHT22;3089;48.202;11.510;2023-12-20T04:02:03;4.90;99.90
6118;DHT22;3089;48.202;11.510;2023-12-20T04:04:33;4.90;99.90
6118;DHT22;3089;48.202;11.510;2023-12-20T04:07:01;4.90;99.90
6118;DHT22;3089;48.202;11.510;2023-12-20T04:09:29;4.90;99.90
6118;DHT22;3089;48.202;11.510;2023-12-20T04:11:57;4.90;99.90
6118;DHT22;3089;48.202;11.510;2023-12-20T04:14:25;4.80;99.90
6118;DHT22;3089;48.202;11.510;2023-12-20T04:16:53;4.80;99.90
6118;DHT22;3089;48.202;11.510;2023-12-20T04:19:21;4.80;99.90
6118;DHT22;3089;48.202;11.510;2023-12-20T04:21:50;4.80;99.90
6118;DHT22;3089;48.202;11.510;2023-12-20T04:24:18;4.80;99.90
6118;DHT22;3089;48.202;11.510;2023-12-20T04:26:46;4.80;99.90
6118;DHT22;3089;48.202;11.510;2023-12-20T04:29:14;4.80;99.90
6118;DHT22;3089;48.202;11.510;2023-12-20T04:31:42;4.80;99.90
6118;DHT22;3089;48.202;11.510;2023-12-20T04:34:10;4.80;99.90
6118;DHT22;3089;48.202;11.510;2023-12-20T04:36:38;4.70;99.90
6118;DHT22;3089;48.202;11.510;2023-12-20T04:39:08;4.80;99.90
6118;DHT22;3089;48.202;11.510;2023-12-20T04:41:36;4.80;99.90
6118;DHT22;3089;48.202;11.510;2023-12-20T04:44:04;4.80;99.90
6118;DHT22;3089;48.202;11.510;2023-12-20T04:46:32;4.80;99.90
6118;DHT22;3089;48.202;11.510;2023-12-20T04:49:00;4.80;99.90
6118;DHT22;3089;48.202;11.510;2023-12-20T04:51:28;4.70;99.90
6118;DHT22;3089;48.202;11.510;2023-12-20T04:53:56;4.80;99.90
6118;DHT22;3089;48.202;11.510;2023-12-20T04:56:26;4.80;99.90
6118;DHT22;3089;48.202;11.510;2023-12-20T04:58:54;4.80;99.90
6118;DHT22;3089;48.202;11.510;2023-12-20T05:01:22;4.70;99.90
6118;DHT22;3089;48.202;11.510;2023-12-20T05:03:50;4.80;99.90
6118;DHT22;3089;48.202;11.510;2023-12-20T05:06:18;4.70;99.90
6118;DHT22;3089;48.202;11.510;2023-12-20T05:08:46;4.70;99.90
6118;DHT22;3089;48.202;11.510;2023-12-20T05:11:13;4.70;99.90
6118;DHT22;3089;48.202;11.510;2023-12-20T05:13:44;4.80;99.90
6118;DHT22;3089;48.202;11.510;2023-12-20T05:16:16;4.70;99.90
6118;DHT22;3089;48.202;11.510;2023-12-20T05:18:47;4.70;99.90
6118;DHT22;3089;48.202;11.510;2023-12-20T05:21:16;4.60;99.90
6118;DHT22;3089;48.202;11.510;2023-12-20T05:23:44;4.70;99.90
6118;DHT22;3089;48.202;11.510;2023-12-20T05:26:13;4.70;99.90
6118;DHT22;3089;48.202;11.510;2023-12-20T05:28:41;4.70;99.90
6118;DHT22;3089;48.202;11.510;2023-12-20T05:31:10;4.70;99.90
6118;DHT22;3089;48.202;11.510;2023-12-20T05:33:38;4.70;99.90
6118;DHT22;3089;48.202;11.510;2023-12-20T05:36:06;4.70;99.90
6118;DHT22;3089;48.202;11.510;2023-12-20T05:38:37;4.70;99.90
6118;DHT22;3089;48.202;11.510;2023-12-20T05:41:05;4.60;99.90
6118;DHT22;3089;48.202;11.510;2023-12-20T05:43:33;4.70;99.90
6118;DHT22;3089;48.202;11.510;2023-12-20T05:46:01;4.70;99.90
6118;DHT22;3089;48.202;11.510;2023-12-20T05:48:31;4.60;99.90
6118;DHT22;3089;48.202;11.510;2023-12-20T05:50:59;4.60;99.90
6118;DHT22;3089;48.202;11.510;2023-12-20T05:53:27;4.60;99.90
6118;DHT22;3089;48.202;11.510;2023-12-20T05:55:55;4.70;99.90
6118;DHT22;3089;48.202;11.510;2023-12-20T05:58:23;4.60;99.90
6118;DHT22;3089;48.202;11.510;2023-12-20T06:00:51;4.70;99.90
6118;DHT22;3089;48.202;11.510;2023-12-20T06:03:19;4.70;99.90
6118;DHT22;3089;48.202;11.510;2023-12-20T06:05:48;4.70;99.90
6118;DHT22;3089;48.202;11.510;2023-12-20T06:08:18;4.60;99.90
6118;DHT22;3089;48.202;11.510;2023-12-20T06:10:46;4.60;99.90
6118;DHT22;3089;48.202;11.510;2023-12-20T06:13:14;4.60;99.90
6118;DHT22;3089;48.202;11.510;2023-12-20T06:15:42;4.60;99.90
6118;DHT22;3089;48.202;11.510;2023-12-20T06:18:10;4.60;99.90
6118;DHT22;3089;48.202;11.510;2023-12-20T06:20:38;4.60;99.90
6118;DHT22;3089;48.202;11.510;2023-12-20T06:23:07;4.60;99.90
6118;DHT22;3089;48.202;11.510;2023-12-20T06:25:35;4.60;99.90
6118;DHT22;3089;48.202;11.510;2023-12-20T06:28:04;4.50;99.90
6118;DHT22;3089;48.202;11.510;2023-12-20T06:30:33;4.60;99.90
6118;DHT22;3089;48.202;11.510;2023-12-20T06:33:01;4.60;99.90
6118;DHT22;3089;48.202;11.510;2023-12-20T06:35:29;4.40;99.90
6118;DHT22;3089;48.202;11.510;2023-12-20T06:38:00;4.30;99.90
6118;DHT22;3089;48.202;11.510;2023-12-20T06:40:29;4.30;99.90
6118;DHT22;3089;48.202;11.510;2023-12-20T06:42:57;4.30;99.90
6118;DHT22;3089;48.202;11.510;2023-12-20T06:45:38;4.30;99.90
6118;DHT22;3089;48.202;11.510;2023-12-20T06:48:06;4.30;99.90
6118;DHT22;3089;48.202;11.510;2023-12-20T06:50:34;4.40;99.90
6118;DHT22;3089;48.202;11.510;2023-12-20T06:53:06;4.40;99.90
6118;DHT22;3089;48.202;11.510;2023-12-20T06:55:37;4.40;99.90
6118;DHT22;3089;48.202;11.510;2023-12-20T06:58:05;4.40;99.90
6118;DHT22;3089;48.202;11.510;2023-12-20T07:00:34;4.30;99.90
6118;DHT22;3089;48.202;11.510;2023-12-20T07:03:02;4.30;99.90
6118;DHT22;3089;48.202;11.510;2023-12-20T07:05:30;4.40;99.90
6118;DHT22;3089;48.202;11.510;2023-12-20T07:07:59;4.40;99.90
6118;DHT22;3089;48.202;11.510;2023-12-20T07:10:27;4.30;99.90
6118;DHT22;3089;48.202;11.510;2023-12-20T07:12:57;4.40;99.90
6118;DHT22;3089;48.202;11.510;2023-12-20T07:15:25;4.30;99.90
6118;DHT22;3089;48.202;11.510;2023-12-20T07:17:53;4.30;99.90
6118;DHT22;3089;48.202;11.510;2023-12-20T07:20:21;4.40;99.90
6118;DHT22;3089;48.202;11.510;2023-12-20T07:22:49;4.30;99.90
6118;DHT22;3089;48.202;11.510;2023-12-20T07:25:17;4.30;99.90
6118;DHT22;3089;48.202;11.510;2023-12-20T07:27:46;4.30;99.90
6118;DHT22;3089;48.202;11.510;2023-12-20T07:30:16;4.40;99.90
6118;DHT22;3089;48.202;11.510;2023-12-20T07:32:44;4.40;99.90
6118;DHT22;3089;48.202;11.510;2023-12-20T07:35:14;4.30;99.90
6118;DHT22;3089;48.202;11.510;2023-12-20T07:37:43;4.30;99.90
6118;DHT22;3089;48.202;11.510;2023-12-20T07:40:11;4.30;99.90
6118;DHT22;3089;48.202;11.510;2023-12-20T07:42:39;4.40;99.90
6118;DHT22;3089;48.202;11.510;2023-12-20T07:45:08;4.30;99.90
6118;DHT22;3089;48.202;11.510;2023-12-20T07:47:38;4.30;99.90
6118;DHT22;3089;48.202;11.510;2023-12-20T07:50:07;4.40;99.90
6118;DHT22;3089;48.202;11.510;2023-12-20T07:52:35;4.30;99.90
6118;DHT22;3089;48.202;11.510;2023-12-20T07:55:04;4.30;99.90
6118;DHT22;3089;48.202;11.510;2023-12-20T07:57:32;4.30;99.90
6118;DHT22;3089;48.202;11.510;2023-12-20T08:00:00;4.30;99.90
6118;DHT22;3089;48.202;11.510;2023-12-20T08:02:30;4.30;99.90
6118;DHT22;3089;48.202;11.510;2023-12-20T08:04:59;4.30;99.90
6118;DHT22;3089;48.202;11.510;2023-12-20T08:07:27;4.30;99.90
6118;DHT22;3089;48.202;11.510;2023-12-20T08:09:55;4.30;99.90
6118;DHT22;3089;48.202;11.510;2023-12-20T08:12:24;4.40;99.90
6118;DHT22;3089;48.202;11.510;2023-12-20T08:14:54;4.30;99.90
6118;DHT22;3089;48.202;11.510;2023-12-20T08:17:23;4.30;99.90
6118;DHT22;3089;48.202;11.510;2023-12-20T08:19:51;4.30;99.90
6118;DHT22;3089;48.202;11.510;2023-12-20T08:22:21;4.30;99.90
6118;DHT22;3089;48.202;11.510;2023-12-20T08:24:49;4.30;99.90
6118;DHT22;3089;48.202;11.510;2023-12-20T08:27:17;4.30;99.90
6118;DHT22;3089;48.202;11.510;2023-12-20T08:29:45;4.30;99.90
6118;DHT22;3089;48.202;11.510;2023-12-20T08:32:14;4.30;99.90
6118;DHT22;3089;48.202;11.510;2023-12-20T08:34:42;4.30;99.90
6118;DHT22;3089;48.202;11.510;2023-12-20T08:37:10;4.30;99.90
6118;DHT22;3089;48.202;11.510;2023-12-20T08:39:39;4.40;99.90
6118;DHT22;3089;48.202;11.510;2023-12-20T08:42:11;4.30;99.90
6118;DHT22;3089;48.202;11.510;2023-12-20T08:44:39;4.30;99.90
6118;DHT22;3089;48.202;11.510;2023-12-20T08:47:07;4.40;99.90
6118;DHT22;3089;48.202;11.510;2023-12-20T08:49:39;4.30;99.90
6118;DHT22;3089;48.202;11.510;2023-12-20T08:52:07;4.40;99.90
6118;DHT22;3089;48.202;11.510;2023-12-20T08:54:35;4.40;99.90
6118;DHT22;3089;48.202;11.510;2023-12-20T08:57:05;4.40;99.90
6118;DHT22;3089;48.202;11.510;2023-12-20T08:59:33;4.40;99.90
6118;DHT22;3089;48.202;11.510;2023-12-20T09:02:01;4.40;99.90
6118;DHT22;3089;48.202;11.510;2023-12-20T09:04:29;4.50;99.90
6118;DHT22;3089;48.202;11.510;2023-12-20T09:06:59;4.50;99.90
6118;DHT22;3089;48.202;11.510;2023-12-20T09:09:28;4.50;99.90
6118;DHT22;3089;48.202;11.510;2023-12-20T09:11:58;4.50;99.90
6118;DHT22;3089;48.202;11.510;2023-12-20T09:14:28;4.50;99.90
6118;DHT22;3089;48.202;11.510;2023-12-20T09:16:56;4.50;99.90
6118;DHT22;3089;48.202;11.510;2023-12-20T09:19:25;4.50;99.90
6118;DHT22;3089;48.202;11.510;2023-12-20T09:21:53;4.50;99.90
6118;DHT22;3089;48.202;11.510;2023-12-20T09:24:21;4.40;99.90
6118;DHT22;3089;48.202;11.510;2023-12-20T09:26:49;4.40;99.90
6118;DHT22;3089;48.202;11.510;2023-12-20T09:29:17;4.50;99.90
6118;DHT22;3089;48.202;11.510;2023-12-20T09:31:47;4.40;99.90
6118;DHT22;3089;48.202;11.510;2023-12-20T09:34:15;4.40;99.90
6118;DHT22;3089;48.202;11.510;2023-12-20T09:36:44;4.40;99.90
6118;DHT22;3089;48.202;11.510;2023-12-20T09:39:14;4.40;99.90
6118;DHT22;3089;48.202;11.510;2023-12-20T09:41:44;4.40;99.90
6118;DHT22;3089;48.202;11.510;2023-12-20T09:44:15;4.40;99.90
6118;DHT22;3089;48.202;11.510;2023-12-20T09:46:50;4.40;99.90
6118;DHT22;3089;48.202;11.510;2023-12-20T09:49:20;4.40;99.90
6118;DHT22;3089;48.202;11.510;2023-12-20T09:51:50;4.40;99.90
6118;DHT22;3089;48.202;11.510;2023-12-20T09:54:20;4.40;99.90
6118;DHT22;3089;48.202;11.510;2023-12-20T09:56:48;4.50;99.90
6118;DHT22;3089;48.202;11.510;2023-12-20T09:59:16;4.50;99.90
6118;DHT22;3089;48.202;11.510;2023-12-20T10:01:44;4.50;99.90
6118;DHT22;3089;48.202;11.510;2023-12-20T10:04:15;4.50;99.90
6118;DHT22;3089;48.202;11.510;2023-12-20T10:06:55;4.50;99.90
6118;DHT22;3089;48.202;11.510;2023-12-20T10:09:25;4.50;99.90
6118;DHT22;3089;48.202;11.510;2023-12-20T10:11:54;4.60;99.90
6118;DHT22;3089;48.202;11.510;2023-12-20T10:14:23;4.60;99.90
6118;DHT22;3089;48.202;11.510;2023-12-20T10:16:51;4.60;99.90
6118;DHT22;3089;48.202;11.510;2023-12-20T10:19:22;4.60;99.90
6118;DHT22;3089;48.202;11.510;2023-12-20T10:21:50;4.70;99.90
6118;DHT22;3089;48.202;11.510;2023-12-20T10:24:19;4.70;99.90
6118;DHT22;3089;48.202;11.510;2023-12-20T10:27:01;4.80;99.90
6118;DHT22;3089;48.202;11.510;2023-12-20T10:29:32;4.80;99.90
6118;DHT22;3089;48.202;11.510;2023-12-20T10:32:23;4.80;99.90
6118;DHT22;3089;48.202;11.510;2023-12-20T10:34:53;4.80;99.90
6118;DHT22;3089;48.202;11.510;2023-12-20T10:37:22;4.80;99.90
6118;DHT22;3089;48.202;11.510;2023-12-20T10:39:51;4.80;99.90
6118;DHT22;3089;48.202;11.510;2023-12-20T10:42:26;4.70;99.90
6118;DHT22;3089;48.202;11.510;2023-12-20T10:44:54;4.70;99.90
6118;DHT22;3089;48.202;11.510;2023-12-20T10:47:22;4.70;99.90
6118;DHT22;3089;48.202;11.510;2023-12-20T10:49:54;4.70;99.90
6118;DHT22;3089;48.202;11.510;2023-12-20T10:52:23;4.70;99.90
6118;DHT22;3089;48.202;11.510;2023-12-20T10:54:52;4.70;99.90
6118;DHT22;3089;48.202;11.510;2023-12-20T10:57:22;4.70;99.90
6118;DHT22;3089;48.202;11.510;2023-12-20T10:59:53;4.70;99.90
6118;DHT22;3089;48.202;11.510;2023-12-20T11:02:22;4.70;99.90
6118;DHT22;3089;48.202;11.510;2023-12-20T11:04:55;4.70;99.90
6118;DHT22;3089;48.202;11.510;2023-12-20T11:07:29;4.70;99.90
6118;DHT22;3089;48.202;11.510;2023-12-20T11:10:02;4.70;99.90
6118;DHT22;3089;48.202;11.510;2023-12-20T11:12:37;4.70;99.90
6118;DHT22;3089;48.202;11.510;2023-12-20T11:15:08;4.80;99.90
6118;DHT22;3089;48.202;11.510;2023-12-20T11:17:39;4.80;99.90
6118;DHT22;3089;48.202;11.510;2023-12-20T11:20:10;4.80;99.90
6118;DHT22;3089;48.202;11.510;2023-12-20T11:22:40;4.80;99.90
6118;DHT22;3089;48.202;11.510;2023-12-20T11:25:19;4.80;99.90
6118;DHT22;3089;48.202;11.510;2023-12-20T11:28:08;4.80;99.90
6118;DHT22;3089;48.202;11.510;2023-12-20T11:30:46;4.80;99.90
6118;DHT22;3089;48.202;11.510;2023-12-20T11:33:15;4.90;99.90
6118;DHT22;3089;48.202;11.510;2023-12-20T11:35:45;4.90;99.90
6118;DHT22;3089;48.202;11.510;2023-12-20T11:38:13;5.00;99.90
6118;DHT22;3089;48.202;11.510;2023-12-20T11:40:42;5.00;99.90
6118;DHT22;3089;48.202;11.510;2023-12-20T11:43:11;5.00;99.90
6118;DHT22;3089;48.202;11.510;2023-12-20T11:45:49;5.10;99.90
6118;DHT22;3089;48.202;11.510;2023-12-20T11:48:18;5.00;99.90
6118;DHT22;3089;48.202;11.510;2023-12-20T11:50:48;5.10;99.90
6118;DHT22;3089;48.202;11.510;2023-12-20T11:53:16;5.10;99.90
6118;DHT22;3089;48.202;11.510;2023-12-20T11:55:47;5.20;99.90
6118;DHT22;3089;48.202;11.510;2023-12-20T11:58:16;5.10;99.90
6118;DHT22;3089;48.202;11.510;2023-12-20T12:00:44;5.10;99.90
6118;DHT22;3089;48.202;11.510;2023-12-20T12:03:15;5.20;99.90
6118;DHT22;3089;48.202;11.510;2023-12-20T12:05:48;5.20;99.90
6118;DHT22;3089;48.202;11.510;2023-12-20T12:08:16;5.30;99.90
6118;DHT22;3089;48.202;11.510;2023-12-20T12:10:45;5.40;99.90
6118;DHT22;3089;48.202;11.510;2023-12-20T12:13:13;5.40;99.90
6118;DHT22;3089;48.202;11.510;2023-12-20T12:15:42;5.40;99.90
6118;DHT22;3089;48.202;11.510;2023-12-20T12:18:14;5.70;99.90
6118;DHT22;3089;48.202;11.510;2023-12-20T12:20:42;5.70;99.90
6118;DHT22;3089;48.202;11.510;2023-12-20T12:23:12;5.80;99.90
6118;DHT22;3089;48.202;11.510;2023-12-20T12:25:40;5.90;99.90
6118;DHT22;3089;48.202;11.510;2023-12-20T12:28:09;5.90;99.90
6118;DHT22;3089;48.202;11.510;2023-12-20T12:30:38;5.90;99.90
6118;DHT22;3089;48.202;11.510;2023-12-20T12:33:19;6.00;99.90
6118;DHT22;3089;48.202;11.510;2023-12-20T12:35:48;5.90;99.90
6118;DHT22;3089;48.202;11.510;2023-12-20T12:38:20;5.60;99.90
6118;DHT22;3089;48.202;11.510;2023-12-20T12:40:48;5.60;99.90
6118;DHT22;3089;48.202;11.510;2023-12-20T12:43:16;5.60;99.90
6118;DHT22;3089;48.202;11.510;2023-12-20T12:45:44;5.70;99.90
6118;DHT22;3089;48.202;11.510;2023-12-20T12:48:13;5.70;99.90
6118;DHT22;3089;48.202;11.510;2023-12-20T12:50:42;5.60;99.90
6118;DHT22;3089;48.202;11.510;2023-12-20T12:53:10;5.80;99.90
6118;DHT22;3089;48.202;11.510;2023-12-20T12:55:39;6.00;99.90
6118;DHT22;3089;48.202;11.510;2023-12-20T12:58:07;5.70;99.90
6118;DHT22;3089;48.202;11.510;2023-12-20T13:00:35;5.60;99.90
6118;DHT22;3089;48.202;11.510;2023-12-20T13:03:03;5.50;99.90
6118;DHT22;3089;48.202;11.510;2023-12-20T13:05:31;5.30;99.90
6118;DHT22;3089;48.202;11.510;2023-12-20T13:08:06;5.50;99.90
6118;DHT22;3089;48.202;11.510;2023-12-20T13:10:34;5.50;99.90
6118;DHT22;3089;48.202;11.510;2023-12-20T13:13:04;5.90;99.90
6118;DHT22;3089;48.202;11.510;2023-12-20T13:15:32;5.70;99.90
6118;DHT22;3089;48.202;11.510;2023-12-20T13:18:00;5.80;99.90
6118;DHT22;3089;48.202;11.510;2023-12-20T13:20:28;5.80;99.90
6118;DHT22;3089;48.202;11.510;2023-12-20T13:22:56;5.80;99.90
6118;DHT22;3089;48.202;11.510;2023-12-20T13:25:24;5.70;99.90
6118;DHT22;3089;48.202;11.510;2023-12-20T13:27:53;5.70;99.90
6118;DHT22;3089;48.202;11.510;2023-12-20T13:30:23;5.80;99.90
6118;DHT22;3089;48.202;11.510;2023-12-20T13:32:50;5.60;99.90
6118;DHT22;3089;48.202;11.510;2023-12-20T13:35:19;5.70;99.90
6118;DHT22;3089;48.202;11.510;2023-12-20T13:37:47;5.70;99.90
6118;DHT22;3089;48.202;11.510;2023-12-20T13:40:15;5.60;99.90
6118;DHT22;3089;48.202;11.510;2023-12-20T13:42:44;5.70;99.90
6118;DHT22;3089;48.202;11.510;2023-12-20T13:45:13;5.50;99.90
6118;DHT22;3089;48.202;11.510;2023-12-20T13:47:42;5.60;99.90
6118;DHT22;3089;48.202;11.510;2023-12-20T13:50:10;5.50;99.90
6118;DHT22;3089;48.202;11.510;2023-12-20T13:52:39;5.60;99.90
6118;DHT22;3089;48.202;11.510;2023-12-20T13:55:08;5.60;99.90
6118;DHT22;3089;48.202;11.510;2023-12-20T13:57:37;5.80;99.90
6118;DHT22;3089;48.202;11.510;2023-12-20T14:00:21;5.80;99.90
6118;DHT22;3089;48.202;11.510;2023-12-20T14:02:50;5.90;99.90
6118;DHT22;3089;48.202;11.510;2023-12-20T14:05:18;5.70;99.90
6118;DHT22;3089;48.202;11.510;2023-12-20T14:07:49;5.50;99.90
6118;DHT22;3089;48.202;11.510;2023-12-20T14:10:18;5.80;99.90
6118;DHT22;3089;48.202;11.510;2023-12-20T14:12:46;5.70;99.90
6118;DHT22;3089;48.202;11.510;2023-12-20T14:15:14;5.70;99.90
6118;DHT22;3089;48.202;11.510;2023-12-20T14:17:42;5.90;99.90
6118;DHT22;3089;48.202;11.510;2023-12-20T14:20:12;5.50;99.90
6118;DHT22;3089;48.202;11.510;2023-12-20T14:22:41;5.60;99.90
6118;DHT22;3089;48.202;11.510;2023-12-20T14:25:11;5.80;99.90
6118;DHT22;3089;48.202;11.510;2023-12-20T14:27:39;5.70;99.90
6118;DHT22;3089;48.202;11.510;2023-12-20T14:30:12;5.80;99.90
6118;DHT22;3089;48.202;11.510;2023-12-20T14:32:41;6.00;99.90
6118;DHT22;3089;48.202;11.510;2023-12-20T14:35:09;5.90;99.90
6118;DHT22;3089;48.202;11.510;2023-12-20T14:37:39;5.70;99.90
6118;DHT22;3089;48.202;11.510;2023-12-20T14:40:08;5.80;99.90
6118;DHT22;3089;48.202;11.510;2023-12-20T14:42:41;5.80;99.90
6118;DHT22;3089;48.202;11.510;2023-12-20T14:45:10;5.80;99.90
6118;DHT22;3089;48.202;11.510;2023-12-20T14:47:38;5.80;99.90
6118;DHT22;3089;48.202;11.510;2023-12-20T14:50:07;5.60;99.90
6118;DHT22;3089;48.202;11.510;2023-12-20T14:52:35;5.60;99.90
6118;DHT22;3089;48.202;11.510;2023-12-20T14:55:05;5.70;99.90
6118;DHT22;3089;48.202;11.510;2023-12-20T14:57:33;5.50;99.90
6118;DHT22;3089;48.202;11.510;2023-12-20T15:00:02;5.50;99.90
6118;DHT22;3089;48.202;11.510;2023-12-20T15:02:30;5.60;99.90
6118;DHT22;3089;48.202;11.510;2023-12-20T15:04:58;5.60;99.90
6118;DHT22;3089;48.202;11.510;2023-12-20T15:07:27;5.60;99.90
6118;DHT22;3089;48.202;11.510;2023-12-20T15:09:56;5.60;99.90
6118;DHT22;3089;48.202;11.510;2023-12-20T15:12:25;5.60;99.90
6118;DHT22;3089;48.202;11.510;2023-12-20T15:14:53;5.50;99.90
6118;DHT22;3089;48.202;11.510;2023-12-20T15:17:21;5.40;99.90
6118;DHT22;3089;48.202;11.510;2023-12-20T15:19:49;5.70;99.90
6118;DHT22;3089;48.202;11.510;2023-12-20T15:22:17;5.50;99.90
6118;DHT22;3089;48.202;11.510;2023-12-20T15:24:45;5.70;99.90
6118;DHT22;3089;48.202;11.510;2023-12-20T15:27:13;5.50;99.90
6118;DHT22;3089;48.202;11.510;2023-12-20T15:29:43;5.70;99.90
6118;DHT22;3089;48.202;11.510;2023-12-20T15:32:11;5.60;99.90
6118;DHT22;3089;48.202;11.510;2023-12-20T15:34:39;5.60;99.90
6118;DHT22;3089;48.202;11.510;2023-12-20T15:37:07;5.60;99.90
6118;DHT22;3089;48.202;11.510;2023-12-20T15:39:35;5.40;99.90
6118;DHT22;3089;48.202;11.510;2023-12-20T15:42:03;5.60;99.90
6118;DHT22;3089;48.202;11.510;2023-12-20T15:44:31;5.50;99.90
6118;DHT22;3089;48.202;11.510;2023-12-20T15:47:01;5.50;99.90
6118;DHT22;3089;48.202;11.510;2023-12-20T15:49:29;5.50;99.90
6118;DHT22;3089;48.202;11.510;2023-12-20T15:51:57;5.40;99.90
6118;DHT22;3089;48.202;11.510;2023-12-20T15:54:25;5.30;99.90
6118;DHT22;3089;48.202;11.510;2023-12-20T15:56:53;5.40;99.90
6118;DHT22;3089;48.202;11.510;2023-12-20T15:59:21;5.30;99.90
6118;DHT22;3089;48.202;11.510;2023-12-20T16:01:49;5.20;99.90
6118;DHT22;3089;48.202;11.510;2023-12-20T16:04:21;5.30;99.90
6118;DHT22;3089;48.202;11.510;2023-12-20T16:06:50;5.00;99.90
6118;DHT22;3089;48.202;11.510;2023-12-20T16:09:18;5.00;99.90
6118;DHT22;3089;48.202;11.510;2023-12-20T16:11:46;5.20;99.90
6118;DHT22;3089;48.202;11.510;2023-12-20T16:14:14;4.60;99.90